Time;durP1;ratioP1;P1;durP2;ratioP2;P2;SDS_P1;SDS_P2;PMS_P1;PMS_P2;Temp;Humidity;BMP_temperature;BMP_pressure;BME280_temperature;BME280_humidity;BME280_pressure;Samples;Min_cycle;Max_cycle;Signal;HPM_P1;HPM_P2
2023/08/24 00:01:46;;;;;;;4.57;2.60;;;;;;;15.58;100.00;101169.50;4967518;28;20051;-65
2023/08/24 00:04:12;;;;;;;7.78;3.13;;;;;;;15.55;100.00;101167.16;4956293;28;20050;-65
2023/08/24 00:06:39;;;;;;;4.25;3.00;;;;;;;15.49;100.00;101169.56;4969571;28;20181;-66
2023/08/24 00:09:05;;;;;;;7.38;3.45;;;;;;;15.47;100.00;101166.22;4970518;28;20073;-69
2023/08/24 00:11:33;;;;;;;4.93;3.20;;;;;;;15.44;100.00;101158.47;4968688;28;20101;-66
2023/08/24 00:13:59;;;;;;;9.45;4.30;;;;;;;15.40;100.00;101153.63;4968895;28;20051;-66
2023/08/24 00:16:26;;;;;;;9.02;3.10;;;;;;;15.32;100.00;101156.38;4968877;28;20078;-65
2023/08/24 00:18:53;;;;;;;6.43;3.20;;;;;;;15.28;100.00;101152.34;4969936;28;20478;-64
2023/08/24 00:21:22;;;;;;;8.20;3.45;;;;;;;15.27;100.00;101146.09;4969989;28;20074;-66
2023/08/24 00:23:50;;;;;;;4.50;3.45;;;;;;;15.18;100.00;101139.91;4970591;28;20053;-65
2023/08/24 00:26:17;;;;;;;4.60;3.03;;;;;;;15.23;100.00;101137.50;4971206;28;20483;-66
2023/08/24 00:28:44;;;;;;;7.93;3.45;;;;;;;15.20;100.00;101132.47;4969014;28;20483;-66
2023/08/24 00:31:10;;;;;;;7.95;3.63;;;;;;;15.19;100.00;101128.09;4970208;28;20059;-66
2023/08/24 00:33:38;;;;;;;10.02;3.42;;;;;;;15.19;100.00;101129.97;4956394;28;20055;-65
2023/08/24 00:36:05;;;;;;;6.40;3.85;;;;;;;15.17;100.00;101127.41;4950286;28;20468;-71
2023/08/24 00:38:32;;;;;;;7.68;3.85;;;;;;;15.21;100.00;101123.34;4948739;28;20051;-69
2023/08/24 00:40:59;;;;;;;8.77;4.10;;;;;;;15.15;100.00;101128.63;4949444;28;20143;-70
2023/08/24 00:43:26;;;;;;;8.88;3.72;;;;;;;15.15;100.00;101132.16;4949156;28;20055;-70
2023/08/24 00:45:56;;;;;;;7.25;3.47;;;;;;;15.16;100.00;101125.75;4950022;28;20047;-69
2023/08/24 00:48:26;;;;;;;9.45;3.80;;;;;;;15.14;100.00;101124.25;4949742;28;20053;-69
2023/08/24 00:50:53;;;;;;;8.73;3.83;;;;;;;15.10;100.00;101126.47;4949705;28;20094;-71
2023/08/24 00:53:21;;;;;;;4.82;3.58;;;;;;;15.08;100.00;101120.38;4950642;28;20105;-69
2023/08/24 00:55:48;;;;;;;4.88;3.38;;;;;;;15.08;100.00;101123.09;4949916;28;20087;-71
2023/08/24 00:58:14;;;;;;;9.10;3.53;;;;;;;15.06;100.00;101125.16;4950035;28;20047;-71
2023/08/24 01:00:41;;;;;;;5.75;3.45;;;;;;;15.11;100.00;101122.72;4961081;28;20093;-71
2023/08/24 01:03:08;;;;;;;5.53;3.25;;;;;;;15.08;100.00;101122.25;4967735;28;20049;-70
2023/08/24 01:09:22;;;;;;;5.75;3.88;;;;;;;15.02;100.00;101121.13;4942024;28;20401;-68
2023/08/24 01:12:04;;;;;;;6.63;2.97;;;;;;;14.97;100.00;101113.53;4969862;28;20113;-70
2023/08/24 01:14:54;;;;;;;8.70;3.17;;;;;;;14.90;100.00;101109.03;4970127;28;20054;-69
2023/08/24 01:17:27;;;;;;;7.35;3.45;;;;;;;14.90;100.00;101109.03;4963774;28;20047;-70
2023/08/24 01:19:54;;;;;;;6.13;3.17;;;;;;;14.91;100.00;101110.72;4973940;28;20152;-70
2023/08/24 01:22:27;;;;;;;6.38;3.47;;;;;;;14.91;100.00;101102.63;4973414;28;20410;-68
2023/08/24 01:25:04;;;;;;;8.77;4.22;;;;;;;14.89;100.00;101096.56;4973891;28;20150;-70
2023/08/24 01:27:32;;;;;;;5.53;4.30;;;;;;;14.67;100.00;101061.25;4973262;28;20419;-70
2023/08/24 01:29:59;;;;;;;15.68;5.38;;;;;;;14.42;100.00;101038.09;4973579;28;20054;-70
2023/08/24 01:32:25;;;;;;;9.05;5.22;;;;;;;14.42;100.00;101046.19;4973131;28;20054;-71
2023/08/24 01:34:52;;;;;;;7.05;4.88;;;;;;;14.44;100.00;101039.59;4974070;28;20058;-69
2023/08/24 01:37:19;;;;;;;9.50;4.90;;;;;;;14.37;100.00;101037.78;4973734;28;20564;-70
2023/08/24 01:39:54;;;;;;;19.63;6.47;;;;;;;14.13;100.00;101012.63;4973978;28;20039;-71
2023/08/24 01:42:26;;;;;;;9.85;5.60;;;;;;;14.05;100.00;100989.22;4973473;28;20047;-70
2023/08/24 01:44:58;;;;;;;11.57;6.00;;;;;;;13.97;100.00;100983.00;4973719;28;20054;-70
2023/08/24 01:47:27;;;;;;;10.48;6.20;;;;;;;14.03;100.00;100983.16;4973306;28;20113;-71
2023/08/24 01:49:55;;;;;;;9.23;5.95;;;;;;;14.17;100.00;101003.16;4973525;28;20042;-71
2023/08/24 01:52:23;;;;;;;11.10;4.97;;;;;;;14.10;100.00;100998.66;4972476;28;20054;-70
2023/08/24 01:54:50;;;;;;;13.48;6.38;;;;;;;14.00;100.00;100990.75;4972657;28;20117;-69
2023/08/24 01:57:17;;;;;;;13.35;6.13;;;;;;;14.12;100.00;100994.75;4974131;28;20098;-68
2023/08/24 01:59:43;;;;;;;17.13;6.50;;;;;;;14.17;100.00;100995.06;4954906;28;20047;-70
2023/08/24 02:02:10;;;;;;;11.77;5.40;;;;;;;14.19;100.00;100993.03;4972921;28;20103;-69
2023/08/24 02:04:37;;;;;;;11.30;5.28;;;;;;;14.20;100.00;100997.41;4973121;28;20055;-70
2023/08/24 02:07:04;;;;;;;13.15;4.97;;;;;;;14.41;100.00;101017.53;4972948;28;20066;-70
2023/08/24 02:09:31;;;;;;;8.63;4.90;;;;;;;14.64;100.00;101067.00;4973613;28;20050;-70
2023/08/24 02:11:57;;;;;;;8.18;4.63;;;;;;;14.81;100.00;101078.56;4971844;28;20495;-70
2023/08/24 02:14:24;;;;;;;7.47;4.70;;;;;;;14.90;100.00;101100.94;4972125;28;20153;-71
2023/08/24 02:16:51;;;;;;;10.93;5.30;;;;;;;14.92;100.00;101102.44;4972073;28;20074;-69
2023/08/24 02:19:19;;;;;;;9.40;5.13;;;;;;;14.89;100.00;101100.09;4972757;28;20052;-69
2023/08/24 02:21:46;;;;;;;7.53;4.57;;;;;;;14.90;100.00;101103.63;4973190;28;20054;-70
2023/08/24 02:24:12;;;;;;;9.48;5.20;;;;;;;14.90;100.00;101092.84;4972353;28;20047;-70
2023/08/24 02:26:39;;;;;;;8.20;4.43;;;;;;;14.81;100.00;101093.91;4972717;28;20573;-70
2023/08/24 02:29:07;;;;;;;10.40;5.32;;;;;;;14.81;100.00;101104.69;4971072;28;20122;-70
2023/08/24 02:31:33;;;;;;;6.00;4.40;;;;;;;14.83;100.00;101113.47;4972354;28;20101;-70
2023/08/24 02:34:00;;;;;;;7.90;4.38;;;;;;;14.81;100.00;101112.81;4972559;28;20053;-70
2023/08/24 02:36:27;;;;;;;10.02;4.50;;;;;;;14.75;100.00;101109.81;4971839;28;20140;-70
2023/08/24 02:38:54;;;;;;;7.57;3.95;;;;;;;14.82;100.00;101112.66;4972637;28;20093;-70
2023/08/24 02:41:21;;;;;;;8.68;4.32;;;;;;;14.82;100.00;101111.81;4971610;28;20046;-71
2023/08/24 02:43:48;;;;;;;9.23;4.40;;;;;;;14.88;100.00;101105.69;4972197;28;20486;-70
2023/08/24 02:46:14;;;;;;;8.48;4.28;;;;;;;14.87;100.00;101104.00;4972595;28;20113;-71
2023/08/24 02:48:41;;;;;;;7.32;3.97;;;;;;;14.93;100.00;101108.69;4971791;28;20046;-71
2023/08/24 02:51:08;;;;;;;10.57;5.00;;;;;;;14.85;100.00;101106.88;4971727;28;20057;-71
2023/08/24 02:53:35;;;;;;;9.02;4.47;;;;;;;14.87;100.00;101109.41;4971548;28;20078;-71
2023/08/24 02:56:01;;;;;;;8.95;3.92;;;;;;;14.95;100.00;101106.66;4971400;28;20074;-70
2023/08/24 02:58:29;;;;;;;10.65;4.35;;;;;;;14.96;100.00;101108.34;4970824;28;20050;-70
2023/08/24 03:00:56;;;;;;;12.95;4.60;;;;;;;14.93;100.00;101104.13;4970854;28;20047;-71
2023/08/24 03:03:24;;;;;;;12.25;4.60;;;;;;;15.02;100.00;101104.91;4971654;28;20106;-67
2023/08/24 03:05:58;;;;;;;10.15;4.28;;;;;;;15.01;100.00;101103.22;4971864;28;20058;-69
2023/08/24 03:08:25;;;;;;;10.52;4.63;;;;;;;15.05;100.00;101111.81;4954916;28;20050;-70
2023/08/24 03:10:52;;;;;;;13.52;4.32;;;;;;;15.09;100.00;101105.88;4972074;28;20047;-69
2023/08/24 03:13:19;;;;;;;10.52;3.67;;;;;;;15.08;100.00;101111.44;4972007;28;20626;-70
2023/08/24 03:15:45;;;;;;;9.55;3.63;;;;;;;15.09;100.00;101122.09;4972535;28;20403;-70
2023/08/24 03:18:13;;;;;;;9.05;4.30;;;;;;;15.11;100.00;101117.31;4971620;28;20101;-70
2023/08/24 03:20:40;;;;;;;8.30;3.72;;;;;;;15.14;100.00;101114.25;4971905;28;20038;-71
2023/08/24 03:23:06;;;;;;;6.20;4.10;;;;;;;15.07;100.00;101116.00;4971155;28;20050;-70
2023/08/24 03:25:38;;;;;;;11.65;4.20;;;;;;;15.05;100.00;101123.47;4971618;28;20053;-70
2023/08/24 03:28:07;;;;;;;9.77;3.90;;;;;;;15.09;100.00;101115.84;4971532;28;20047;-70
2023/08/24 03:30:36;;;;;;;10.32;3.92;;;;;;;15.08;100.00;101114.16;4971580;28;20400;-70
2023/08/24 03:33:03;;;;;;;9.48;3.90;;;;;;;15.11;100.00;101116.50;4971573;28;20043;-70
2023/08/24 03:35:33;;;;;;;7.93;4.32;;;;;;;15.08;100.00;101114.97;4971580;28;20050;-70
2023/08/24 03:38:00;;;;;;;7.93;3.55;;;;;;;15.08;100.00;101109.56;4971417;28;20121;-71
2023/08/24 03:40:26;;;;;;;11.00;4.30;;;;;;;15.01;100.00;101104.06;4971040;28;20141;-71
2023/08/24 03:42:53;;;;;;;5.45;3.70;;;;;;;14.92;100.00;101101.63;4971052;28;20054;-70
2023/08/24 03:45:20;;;;;;;9.32;4.35;;;;;;;14.94;100.00;101100.38;4970379;28;20053;-70
2023/08/24 03:47:48;;;;;;;9.52;4.53;;;;;;;15.01;100.00;101100.50;4954361;28;20101;-67
2023/08/24 03:50:16;;;;;;;10.93;4.13;;;;;;;15.08;100.00;101104.16;4971687;28;20081;-71
2023/08/24 03:52:42;;;;;;;9.23;4.30;;;;;;;15.04;100.00;101104.72;4953469;28;20039;-71
2023/08/24 03:55:11;;;;;;;9.95;3.67;;;;;;;14.98;100.00;101095.47;4934602;28;20443;-71
2023/08/24 03:57:38;;;;;;;7.68;3.72;;;;;;;14.88;100.00;101095.72;4951384;28;20062;-71
2023/08/24 04:00:11;;;;;;;6.55;3.72;;;;;;;14.88;100.00;101093.03;4960387;28;20043;-71
2023/08/24 04:02:38;;;;;;;12.07;3.72;;;;;;;14.89;100.00;101097.41;4971417;28;20051;-71
2023/08/24 04:05:05;;;;;;;14.10;4.07;;;;;;;14.94;100.00;101099.56;4970948;28;20051;-72
2023/08/24 04:07:33;;;;;;;9.30;3.42;;;;;;;14.92;100.00;101096.22;4970595;28;20134;-71
2023/08/24 04:09:59;;;;;;;7.18;3.55;;;;;;;14.93;100.00;101100.59;4953402;28;20054;-71
2023/08/24 04:12:26;;;;;;;8.07;3.80;;;;;;;15.00;100.00;101096.13;4951555;28;20055;-70
2023/08/24 04:14:52;;;;;;;11.93;3.78;;;;;;;15.02;100.00;101099.50;4950697;28;20101;-70
2023/08/24 04:17:19;;;;;;;5.97;3.50;;;;;;;15.06;100.00;101103.53;4951411;28;20566;-71
2023/08/24 04:19:45;;;;;;;9.07;3.80;;;;;;;14.98;100.00;101104.44;4951583;28;20097;-71
2023/08/24 04:22:12;;;;;;;12.13;3.80;;;;;;;14.98;100.00;101108.97;4950857;28;20047;-71
2023/08/24 04:24:38;;;;;;;11.52;4.10;;;;;;;14.94;100.00;101096.84;4951727;28;20050;-71
2023/08/24 04:27:05;;;;;;;7.55;4.60;;;;;;;14.85;100.00;101092.56;4951089;28;20126;-71
2023/08/24 04:29:32;;;;;;;11.93;4.85;;;;;;;14.83;100.00;101090.00;4934584;28;20055;-71
2023/08/24 04:31:58;;;;;;;7.72;4.03;;;;;;;14.82;100.00;101096.44;4951225;28;20451;-71
2023/08/24 04:34:26;;;;;;;7.63;4.00;;;;;;;14.97;100.00;101093.78;4950600;28;20055;-71
2023/08/24 04:36:54;;;;;;;7.35;4.35;;;;;;;14.96;100.00;101097.53;4951150;28;20050;-71
2023/08/24 04:39:21;;;;;;;10.52;3.95;;;;;;;14.90;100.00;101095.53;4950786;28;20082;-72
2023/08/24 04:41:47;;;;;;;8.48;4.05;;;;;;;15.01;100.00;101097.81;4951440;28;20051;-72
2023/08/24 04:44:14;;;;;;;9.88;3.92;;;;;;;14.97;100.00;101093.78;4951492;28;20126;-70
2023/08/24 04:46:40;;;;;;;10.35;3.65;;;;;;;15.01;100.00;101095.09;4952712;28;20051;-71
2023/08/24 04:49:07;;;;;;;12.90;4.22;;;;;;;15.03;100.00;101095.78;4970443;28;20137;-71
2023/08/24 04:51:34;;;;;;;11.07;4.30;;;;;;;15.06;100.00;101100.84;4968426;28;20057;-71
2023/08/24 04:54:00;;;;;;;9.60;4.40;;;;;;;14.96;100.00;101105.63;4951675;28;20098;-71
2023/08/24 04:56:27;;;;;;;7.82;4.15;;;;;;;15.00;100.00;101109.66;4964894;28;20063;-69
2023/08/24 04:58:56;;;;;;;9.00;4.10;;;;;;;14.96;100.00;101108.34;4949927;28;20067;-71
2023/08/24 05:01:24;;;;;;;14.45;4.43;;;;;;;14.96;100.00;101109.16;4951339;28;20419;-72
2023/08/24 05:03:52;;;;;;;6.47;4.20;;;;;;;15.01;100.00;101108.63;4969492;28;20043;-72
2023/08/24 05:06:20;;;;;;;9.50;3.97;;;;;;;15.07;100.00;101113.31;4969346;28;20106;-71
2023/08/24 05:08:46;;;;;;;7.15;3.80;;;;;;;15.05;100.00;101120.78;4969773;28;20129;-72
2023/08/24 05:11:16;;;;;;;13.82;5.00;;;;;;;15.09;100.00;101119.38;4970287;28;20051;-73
2023/08/24 05:13:43;;;;;;;9.68;4.70;;;;;;;15.04;100.00;101110.97;4967097;28;20097;-73
2023/08/24 05:16:10;;;;;;;8.32;3.58;;;;;;;15.19;100.00;101106.47;4969579;28;20086;-73
2023/08/24 05:18:37;;;;;;;10.23;4.38;;;;;;;15.23;100.00;101107.78;4969447;28;20061;-72
2023/08/24 05:21:04;;;;;;;15.10;4.15;;;;;;;15.36;100.00;101109.03;4970572;28;20051;-72
2023/08/24 05:23:35;;;;;;;11.57;3.78;;;;;;;15.44;100.00;101108.97;4970055;28;20058;-70
2023/08/24 05:26:03;;;;;;;10.48;4.40;;;;;;;15.52;100.00;101108.88;4970396;28;20386;-72
2023/08/24 05:28:31;;;;;;;12.05;4.53;;;;;;;15.60;100.00;101108.78;4969650;28;20081;-71
2023/08/24 05:30:59;;;;;;;9.27;3.55;;;;;;;15.65;100.00;101113.69;4970259;28;20046;-71
2023/08/24 05:33:27;;;;;;;10.27;4.65;;;;;;;15.75;100.00;101113.44;4970096;28;20054;-71
2023/08/24 05:35:53;;;;;;;5.30;3.40;;;;;;;15.65;100.00;101116.41;4969622;28;20098;-70
2023/08/24 05:38:20;;;;;;;7.30;3.72;;;;;;;15.78;100.00;101113.91;4969480;28;20043;-70
2023/08/24 05:40:47;;;;;;;6.57;3.08;;;;;;;15.93;100.00;101124.72;4969927;28;20046;-71
2023/08/24 05:43:15;;;;;;;11.90;3.05;;;;;;;16.01;100.00;101119.22;4969110;28;20137;-72
2023/08/24 05:45:44;;;;;;;10.98;3.47;;;;;;;16.12;100.00;101117.91;4969383;28;20059;-71
2023/08/24 05:48:11;;;;;;;10.95;3.25;;;;;;;16.02;100.00;101120.91;4968587;28;20051;-73
2023/08/24 05:50:46;;;;;;;9.85;3.70;;;;;;;16.00;100.00;101122.97;4969189;28;20129;-72
2023/08/24 05:53:13;;;;;;;12.75;3.63;;;;;;;16.00;100.00;101128.38;4968105;28;20046;-74
2023/08/24 05:55:39;;;;;;;11.05;3.65;;;;;;;16.02;100.00;101122.75;4970063;28;20046;-73
2023/08/24 05:58:06;;;;;;;10.45;3.60;;;;;;;15.96;100.00;101127.06;4969411;28;20042;-73
2023/08/24 06:00:34;;;;;;;5.57;3.00;;;;;;;15.89;100.00;101118.84;4969422;28;20058;-73
2023/08/24 06:03:01;;;;;;;8.98;3.30;;;;;;;15.86;100.00;101126.50;4969539;28;20047;-73
2023/08/24 06:05:31;;;;;;;5.72;3.08;;;;;;;16.04;100.00;101121.56;4972456;28;20051;-73
2023/08/24 06:07:58;;;;;;;6.32;3.55;;;;;;;16.10;100.00;101112.69;4973070;28;20441;-71
2023/08/24 06:10:26;;;;;;;10.85;3.38;;;;;;;16.16;100.00;101125.50;4972710;28;20091;-72
2023/08/24 06:12:53;;;;;;;6.95;3.40;;;;;;;16.27;100.00;101123.34;4972504;28;20046;-72
2023/08/24 06:15:23;;;;;;;7.10;3.45;;;;;;;16.25;100.00;101126.22;4971739;28;20050;-73
2023/08/24 06:17:50;;;;;;;13.15;6.80;;;;;;;16.38;100.00;101120.16;4971946;28;20051;-72
2023/08/24 06:20:19;;;;;;;11.15;3.17;;;;;;;16.37;100.00;101127.44;4972241;28;20125;-65
2023/08/24 06:22:45;;;;;;;15.82;5.68;;;;;;;16.48;100.00;101120.69;4972401;28;20047;-62
2023/08/24 06:25:13;;;;;;;8.38;3.42;;;;;;;16.52;100.00;101129.31;4972816;28;20114;-62
2023/08/24 06:27:40;;;;;;;5.85;3.30;;;;;;;16.74;100.00;101113.94;4971305;28;20129;-62
2023/08/24 06:30:07;;;;;;;9.77;2.85;;;;;;;16.64;100.00;101125.06;4970898;28;20097;-61
2023/08/24 06:32:34;;;;;;;8.73;3.40;;;;;;;16.72;100.00;101129.56;4971241;28;20098;-63
2023/08/24 06:35:01;;;;;;;8.10;3.25;;;;;;;16.83;100.00;101129.03;4971217;28;20415;-63
2023/08/24 06:37:27;;;;;;;6.35;3.15;;;;;;;17.02;100.00;101122.97;4971473;28;20414;-62
2023/08/24 06:39:54;;;;;;;7.90;3.53;;;;;;;17.11;100.00;101129.97;4971268;28;20128;-63
2023/08/24 06:42:20;;;;;;;6.30;3.80;;;;;;;17.28;100.00;101129.72;4972213;28;20050;-62
2023/08/24 06:44:49;;;;;;;8.52;3.22;;;;;;;17.60;100.00;101134.59;4973004;28;20047;-63
2023/08/24 06:47:16;;;;;;;7.53;3.13;;;;;;;17.74;100.00;101134.69;4971665;28;20039;-63
2023/08/24 06:49:44;;;;;;;7.18;3.72;;;;;;;17.80;100.00;101134.75;4945159;28;20068;-62
2023/08/24 06:52:11;;;;;;;5.82;3.20;;;;;;;18.18;100.00;101139.00;4970834;28;20496;-62
2023/08/24 06:54:37;;;;;;;7.63;3.55;;;;;;;18.15;100.00;101139.38;4970169;28;20054;-63
2023/08/24 06:57:04;;;;;;;8.75;3.35;;;;;;;18.43;100.00;101137.44;4972350;28;20101;-62
2023/08/24 06:59:31;;;;;;;7.35;2.55;;;;;;;18.75;100.00;101145.91;4970602;28;20442;-62
2023/08/24 07:01:57;;;;;;;12.35;3.30;;;;;;;18.94;100.00;101161.50;4971822;28;20047;-62
2023/08/24 07:04:27;;;;;;;5.20;2.28;;;;;;;19.21;100.00;101158.84;4970737;28;20154;-63
2023/08/24 07:06:54;;;;;;;16.83;3.35;;;;;;;19.63;100.00;101156.78;4972680;28;20043;-62
2023/08/24 07:09:21;;;;;;;7.72;2.13;;;;;;;19.95;100.00;101166.81;4970410;28;20046;-67
2023/08/24 07:11:48;;;;;;;11.43;3.63;;;;;;;19.93;100.00;101166.22;4973014;28;20050;-67
2023/08/24 07:14:18;;;;;;;8.23;4.03;;;;;;;19.95;100.00;101161.38;4971638;28;20142;-67
2023/08/24 07:16:44;;;;;;;15.82;3.47;;;;;;;19.98;100.00;101164.72;4970790;28;20126;-68
2023/08/24 07:19:11;;;;;;;9.02;3.30;;;;;;;20.18;100.00;101157.34;4970697;28;20450;-67
2023/08/24 07:21:40;;;;;;;7.57;3.33;;;;;;;20.49;100.00;101153.06;4971684;28;20050;-67
2023/08/24 07:24:07;;;;;;;7.82;2.90;;;;;;;21.13;100.00;101150.25;4954189;28;20046;-67
2023/08/24 07:26:34;;;;;;;10.52;3.35;;;;;;;21.25;100.00;101149.53;4970139;28;20047;-66
2023/08/24 07:29:00;;;;;;;8.23;2.40;;;;;;;21.76;96.76;101146.59;4971459;28;20557;-66
2023/08/24 07:31:27;;;;;;;9.73;3.65;;;;;;;22.05;87.25;101147.00;4970655;28;20051;-67
2023/08/24 07:33:55;;;;;;;10.50;3.30;;;;;;;22.49;83.34;101147.78;4972264;28;20047;-69
2023/08/24 07:36:21;;;;;;;5.93;2.28;;;;;;;22.93;77.64;101154.75;4986453;28;20050;-70
2023/08/24 07:38:49;;;;;;;6.70;2.72;;;;;;;22.87;76.02;101146.66;4986924;28;20074;-69
2023/08/24 07:41:18;;;;;;;10.57;2.45;;;;;;;23.45;73.04;101140.53;4986685;28;20050;-68
2023/08/24 07:43:44;;;;;;;8.30;2.20;;;;;;;23.64;70.64;101127.56;4987719;28;20053;-69
2023/08/24 07:46:11;;;;;;;5.22;2.42;;;;;;;23.81;68.97;101134.03;4985498;28;20154;-68
2023/08/24 07:48:38;;;;;;;5.60;2.35;;;;;;;23.50;69.66;101148.84;4986069;28;20051;-70
2023/08/24 07:51:04;;;;;;;8.27;2.28;;;;;;;24.28;64.73;101139.47;4985622;28;20109;-70
2023/08/24 07:53:32;;;;;;;6.53;2.60;;;;;;;23.93;64.33;101139.50;4987266;28;20086;-69
2023/08/24 07:56:01;;;;;;;8.23;3.03;;;;;;;24.06;63.09;101139.28;4984627;28;20046;-71
2023/08/24 07:58:28;;;;;;;5.55;2.70;;;;;;;23.74;63.87;101138.75;4987608;28;20160;-69
2023/08/24 08:00:54;;;;;;;6.00;2.45;;;;;;;23.95;61.55;101138.22;4986970;28;20047;-68
2023/08/24 08:03:22;;;;;;;10.10;2.78;;;;;;;24.35;60.43;101134.69;4987338;28;20043;-70
2023/08/24 08:05:49;;;;;;;6.82;2.85;;;;;;;23.94;60.11;101132.94;4970664;28;20184;-68
2023/08/24 08:08:16;;;;;;;8.05;3.33;;;;;;;24.92;57.69;101128.41;4988390;28;20038;-68
2023/08/24 08:10:42;;;;;;;8.60;2.17;;;;;;;25.47;56.86;101141.47;4988540;28;20150;-69
2023/08/24 08:13:12;;;;;;;9.52;2.03;;;;;;;25.07;57.16;101136.13;4987484;28;20051;-69
2023/08/24 08:15:39;;;;;;;5.45;2.10;;;;;;;25.13;56.61;101138.72;4987158;28;20439;-68
2023/08/24 08:18:06;;;;;;;10.32;2.88;;;;;;;24.55;57.65;101134.31;4986386;28;20154;-69
2023/08/24 08:20:32;;;;;;;9.48;2.05;;;;;;;24.41;58.54;101138.41;4985571;28;20050;-69
2023/08/24 08:22:59;;;;;;;9.38;2.58;;;;;;;24.15;59.29;101124.09;4987142;28;20077;-69
2023/08/24 08:25:26;;;;;;;4.88;2.10;;;;;;;24.40;58.27;101123.00;4986171;28;20055;-68
2023/08/24 08:27:52;;;;;;;7.28;2.15;;;;;;;24.53;58.28;101128.22;4985233;28;20047;-68
2023/08/24 08:30:20;;;;;;;9.15;2.17;;;;;;;24.68;57.81;101114.81;4985338;28;20046;-68
2023/08/24 08:32:48;;;;;;;10.43;2.40;;;;;;;24.12;59.41;101110.03;4985630;28;20046;-69
2023/08/24 08:35:14;;;;;;;4.95;2.22;;;;;;;23.63;60.50;101110.28;4986034;28;20066;-70
2023/08/24 08:37:41;;;;;;;7.35;2.17;;;;;;;23.43;63.86;101101.59;4985260;28;20042;-69
2023/08/24 08:40:10;;;;;;;7.45;2.80;;;;;;;23.05;66.14;101111.00;4986141;28;20051;-68
2023/08/24 08:42:37;;;;;;;6.45;2.08;;;;;;;22.95;68.19;101106.13;4984654;28;20054;-69
2023/08/24 08:45:09;;;;;;;5.60;2.17;;;;;;;23.02;68.76;101111.50;4985653;28;20094;-70
2023/08/24 08:47:36;;;;;;;9.48;2.95;;;;;;;23.00;67.62;101106.25;4984666;28;20046;-69
2023/08/24 08:50:03;;;;;;;4.82;2.25;;;;;;;22.67;70.74;101101.28;4967844;28;20051;-70
2023/08/24 08:52:31;;;;;;;9.10;2.63;;;;;;;22.20;70.65;101109.19;4984293;28;20046;-69
2023/08/24 08:54:58;;;;;;;9.70;3.15;;;;;;;21.92;72.85;101103.44;4985607;28;20070;-70
2023/08/24 08:57:25;;;;;;;10.20;2.65;;;;;;;21.58;79.16;101108.34;4985150;28;20081;-69
2023/08/24 08:59:53;;;;;;;9.48;2.22;;;;;;;21.98;80.27;101088.84;4983113;28;20047;-71
2023/08/24 09:02:22;;;;;;;9.73;2.05;;;;;;;22.06;75.79;101085.81;4984885;28;20054;-70
2023/08/24 09:04:50;;;;;;;9.02;4.80;;;;;;;22.33;74.28;101089.91;4985676;28;20047;-70
2023/08/24 09:07:17;;;;;;;17.15;4.28;;;;;;;22.58;73.06;101094.44;4983797;28;20062;-70
2023/08/24 09:09:44;;;;;;;10.15;2.95;;;;;;;22.54;73.18;101088.63;4983195;28;20043;-70
2023/08/24 09:12:11;;;;;;;5.43;3.05;;;;;;;22.95;72.59;101091.63;4984084;28;20051;-71
2023/08/24 09:14:39;;;;;;;7.40;2.47;;;;;;;23.89;64.92;101087.09;4984485;28;20146;-71
2023/08/24 09:17:06;;;;;;;5.72;2.30;;;;;;;24.23;63.11;101084.53;4982109;28;20098;-71
2023/08/24 09:19:35;;;;;;;5.88;2.00;;;;;;;24.03;62.45;101078.63;4984878;28;20062;-70
2023/08/24 09:22:02;;;;;;;6.70;2.60;;;;;;;23.72;64.70;101072.44;4982522;28;20051;-70
2023/08/24 09:24:32;;;;;;;8.13;2.10;;;;;;;23.80;65.35;101072.09;4981855;28;20110;-70
2023/08/24 09:27:05;;;;;;;4.90;2.17;;;;;;;23.44;63.90;101073.16;4984237;28;20502;-70
2023/08/24 09:29:36;;;;;;;10.00;2.45;;;;;;;23.50;66.69;101072.19;4982366;28;20126;-70
2023/08/24 09:32:03;;;;;;;5.03;2.00;;;;;;;23.56;66.51;101065.75;4983832;28;20047;-70
2023/08/24 09:34:30;;;;;;;7.35;2.30;;;;;;;23.25;66.33;101065.03;4983146;28;20109;-72
2023/08/24 09:36:57;;;;;;;8.63;2.40;;;;;;;23.50;63.97;101062.09;4983149;28;20054;-71
2023/08/24 09:39:24;;;;;;;5.40;1.80;;;;;;;24.71;58.43;101060.50;4987559;28;20125;-71
2023/08/24 09:41:53;;;;;;;5.65;1.85;;;;;;;26.99;51.87;101067.56;4971199;28;20406;-70
2023/08/24 09:44:20;;;;;;;8.02;1.65;;;;;;;29.14;45.25;101060.31;4987963;28;20047;-69
2023/08/24 09:46:47;;;;;;;9.80;1.92;;;;;;;29.94;42.41;101051.31;4990225;28;20463;-70
2023/08/24 09:49:13;;;;;;;6.22;1.88;;;;;;;29.43;40.22;101052.28;4988336;28;20087;-70
2023/08/24 09:51:44;;;;;;;10.70;2.05;;;;;;;31.03;38.57;101048.50;4987407;28;20081;-70
2023/08/24 09:54:11;;;;;;;;;;;;;;;31.77;36.77;101045.56;4987745;28;20046;-70
2023/08/24 09:56:42;;;;;;;7.53;2.08;;;;;;;32.03;35.59;101040.56;4988884;28;19929;-68
2023/08/24 09:59:18;;;;;;;8.45;2.10;;;;;;;30.02;38.34;101034.19;4987917;28;20051;-71
2023/08/24 10:01:48;;;;;;;3.28;1.40;;;;;;;31.80;36.68;101042.19;4971724;28;20042;-70
2023/08/24 10:04:23;;;;;;;;;;;;;;;33.28;33.84;101038.09;4987143;28;20121;-70
2023/08/24 10:06:56;;;;;;;5.80;1.55;;;;;;;33.95;31.66;101029.28;4987977;28;19922;-70
2023/08/24 10:09:31;;;;;;;6.88;1.60;;;;;;;31.76;32.60;101032.81;4985343;28;20046;-70
2023/08/24 10:12:01;;;;;;;7.32;1.90;;;;;;;31.15;34.33;101032.31;4987242;28;20046;-70
2023/08/24 10:14:31;;;;;;;;;;;;;;;30.78;34.92;101027.38;4987711;28;20085;-69
2023/08/24 10:16:58;;;;;;;4.65;1.55;;;;;;;31.22;34.17;101035.56;4971712;28;19945;-70
2023/08/24 10:19:25;;;;;;;8.18;1.90;;;;;;;30.68;35.21;101031.03;4970535;28;20466;-70
2023/08/24 10:21:57;;;;;;;4.32;1.40;;;;;;;33.11;32.68;101027.53;4969948;28;20096;-70
2023/08/24 10:24:23;;;;;;;7.32;2.00;;;;;;;32.21;32.84;101025.06;4985241;28;20053;-69
2023/08/24 10:26:50;;;;;;;8.25;1.63;;;;;;;32.00;34.19;101019.78;4986497;28;20101;-70
2023/08/24 10:29:18;;;;;;;3.88;1.80;;;;;;;33.02;32.19;101018.25;4987452;28;20043;-69
2023/08/24 10:31:45;;;;;;;10.32;1.90;;;;;;;31.04;34.95;101019.69;4969004;28;20051;-70
2023/08/24 10:34:12;;;;;;;6.45;1.63;;;;;;;29.61;38.15;101014.94;4983972;28;20051;-70
2023/08/24 10:36:41;;;;;;;7.03;1.60;;;;;;;28.56;38.43;101016.38;4984590;28;20102;-69
2023/08/24 10:39:07;;;;;;;5.30;1.30;;;;;;;30.05;37.58;101020.59;4984221;28;20054;-68
2023/08/24 10:41:51;;;;;;;5.72;1.88;;;;;;;31.36;35.15;101027.38;4983885;28;20074;-68
2023/08/24 10:44:35;;;;;;;5.82;1.70;;;;;;;32.05;34.19;101025.25;4985559;28;20141;-68
2023/08/24 10:47:14;;;;;;;4.35;1.73;;;;;;;30.12;37.07;101025.84;4968666;28;20043;-70
2023/08/24 10:50:03;;;;;;;6.57;1.58;;;;;;;30.19;36.26;101028.25;4985790;28;20047;-69
2023/08/24 10:52:29;;;;;;;4.22;1.75;;;;;;;30.39;36.91;101019.00;4985159;28;20047;-71
2023/08/24 10:54:56;;;;;;;6.97;1.90;;;;;;;30.91;36.35;101017.53;4985058;28;20047;-69
2023/08/24 10:57:37;;;;;;;3.28;1.60;;;;;;;30.22;37.54;101009.13;4985496;28;20051;-68
2023/08/24 11:00:05;;;;;;;9.65;1.73;;;;;;;30.29;36.98;101018.00;4986975;28;20053;-68
2023/08/24 11:02:45;;;;;;;8.38;1.70;;;;;;;29.34;38.45;101016.06;4985055;28;20216;-70
2023/08/24 11:05:15;;;;;;;6.57;1.75;;;;;;;27.81;39.59;101010.28;4986669;28;20047;-70
2023/08/24 11:07:59;;;;;;;13.88;1.90;;;;;;;27.32;41.60;101015.25;4983999;28;20070;-70
2023/08/24 11:10:32;;;;;;;10.02;2.15;;;;;;;26.60;43.68;100992.59;4984751;28;20113;-70
2023/08/24 11:13:09;;;;;;;7.93;2.40;;;;;;;25.94;46.08;100989.94;4985806;28;20051;-69
2023/08/24 11:15:43;;;;;;;6.38;2.10;;;;;;;26.56;44.45;100983.22;4984950;28;20050;-69
2023/08/24 11:18:13;;;;;;;4.57;1.80;;;;;;;26.58;44.72;100971.94;4986062;28;20235;-69
2023/08/24 11:20:44;;;;;;;6.50;2.00;;;;;;;26.75;44.93;100956.97;4984475;28;20055;-68
2023/08/24 11:23:11;;;;;;;4.05;1.88;;;;;;;26.58;46.10;100958.16;4987398;28;20077;-69
2023/08/24 11:25:38;;;;;;;6.25;2.17;;;;;;;26.36;46.53;100969.25;4968745;28;20055;-69
2023/08/24 11:28:05;;;;;;;9.52;2.17;;;;;;;26.59;46.83;100970.81;4986820;28;20058;-69